Grass Creek, Wyoming
Current Conditions -  °F | °C
As of 6:53 AM on Wednesday 26 Nov 2014 (Local Time) from KWRL Reporting Station
Scattered Clouds Scattered Clouds  
Wind Chill: 21°   Ceiling: Unl
Heat Index: 21°   Visibility: 9mi
Dew Point: 20°   Wind: 3mph
Humidity: 96%   Direction: 90°E
Pressure: 30.14"   Gusts: NA
Location:  43.7189°N, 108.442°W
Report Text: KWRL 261353Z AUTO 09003KT 9SM FEW042 SCT080 SCT120 M06/M07 A3014 RMK AO2 SNB16E31 SLP254 P0000 T10611067
Loading
Personal Weather Stations






























Interactive Weather Map New forecast layout! Learn more

10-Day Weather Forecast

Advertisements
Track Severe Weather on mobile